Time;durP1;ratioP1;P1;durP2;ratioP2;P2;SDS_P1;SDS_P2;PMS_P1;PMS_P2;Temp;Humidity;BMP_temperature;BMP_pressure;BME280_temperature;BME280_humidity;BME280_pressure;Samples;Min_cycle;Max_cycle;Signal;HPM_P1;HPM_P2
2023/08/14 00:00:18;;;;;;;9.37;7.20;;;;;;;20.60;100.00;98119.59;5056181;28;20225;-78
2023/08/14 00:02:44;;;;;;;8.07;7.33;;;;;;;20.62;100.00;98122.81;5055440;28;20228;-77
2023/08/14 00:05:11;;;;;;;8.70;7.30;;;;;;;20.56;100.00;98128.50;5036026;28;20202;-78
2023/08/14 00:07:37;;;;;;;7.60;6.93;;;;;;;20.59;100.00;98120.69;5036022;28;20206;-77
2023/08/14 00:10:04;;;;;;;8.53;7.63;;;;;;;20.58;100.00;98121.75;5054494;28;20232;-77
2023/08/14 00:12:30;;;;;;;9.77;8.13;;;;;;;20.62;100.00;98124.72;5054436;28;20209;-77
2023/08/14 00:14:57;;;;;;;10.67;8.00;;;;;;;20.57;100.00;98133.66;5055797;28;20205;-77
2023/08/14 00:17:23;;;;;;;8.47;7.30;;;;;;;20.59;100.00;98130.66;5055444;28;20197;-77
2023/08/14 00:19:49;;;;;;;8.70;7.73;;;;;;;20.66;100.00;98112.25;5055326;28;20751;-77
2023/08/14 00:22:16;;;;;;;8.20;7.40;;;;;;;20.67;100.00;98121.97;5055124;28;20664;-77
2023/08/14 00:24:42;;;;;;;7.70;7.00;;;;;;;20.62;100.00;98120.09;5055348;28;20233;-77
2023/08/14 00:27:08;;;;;;;8.20;7.40;;;;;;;20.60;100.00;98118.78;5055058;28;20197;-78
2023/08/14 00:29:35;;;;;;;9.23;7.83;;;;;;;20.62;100.00;98122.00;5054943;28;20722;-78
2023/08/14 00:32:01;;;;;;;9.27;8.30;;;;;;;20.61;100.00;98128.50;5055210;28;20664;-77
2023/08/14 00:34:27;;;;;;;8.30;7.47;;;;;;;20.60;100.00;98119.59;5054158;28;20203;-78
2023/08/14 00:36:54;;;;;;;7.17;6.47;;;;;;;20.57;100.00;98125.53;5055588;28;20205;-77
2023/08/14 00:39:20;;;;;;;8.77;7.60;;;;;;;20.59;100.00;98119.84;5055354;28;20243;-78
2023/08/14 00:41:46;;;;;;;7.93;7.13;;;;;;;20.69;100.00;98122.47;5054797;28;20211;-78
2023/08/14 00:44:13;;;;;;;8.27;7.30;;;;;;;20.69;100.00;98119.78;5053693;28;20221;-77
2023/08/14 00:46:40;;;;;;;8.17;7.43;;;;;;;20.67;100.00;98119.28;5054642;28;20648;-77
2023/08/14 00:49:07;;;;;;;8.50;7.70;;;;;;;20.71;100.00;98115.72;5054865;28;20222;-77
2023/08/14 00:51:35;;;;;;;8.00;6.70;;;;;;;20.67;100.00;98125.47;5055230;28;20212;-78
2023/08/14 00:54:02;;;;;;;7.13;6.43;;;;;;;20.66;100.00;98113.03;5054068;28;20197;-77
2023/08/14 00:56:29;;;;;;;8.50;7.00;;;;;;;20.68;100.00;98107.38;5037322;28;20205;-78
2023/08/14 00:58:56;;;;;;;8.37;6.60;;;;;;;20.67;100.00;98098.44;5054658;28;20652;-77
2023/08/14 01:01:24;;;;;;;7.80;7.10;;;;;;;20.66;100.00;98098.75;5055567;28;20687;-78
2023/08/14 01:03:50;;;;;;;7.40;6.30;;;;;;;20.62;100.00;98097.69;5053388;28;20561;-78
2023/08/14 01:06:17;;;;;;;7.97;6.30;;;;;;;20.68;100.00;98100.09;5054593;28;20209;-78
2023/08/14 01:08:44;;;;;;;7.17;6.47;;;;;;;20.72;100.00;98090.31;5055085;28;20221;-78
2023/08/14 01:11:29;;;;;;;7.53;5.83;;;;;;;20.72;100.00;98103.00;5036700;28;20640;-77
2023/08/14 01:14:07;;;;;;;7.70;6.17;;;;;;;20.66;100.00;98106.84;5053507;28;20679;-78
2023/08/14 01:16:40;;;;;;;8.67;5.93;;;;;;;20.67;100.00;98109.25;5037257;28;20283;-78
2023/08/14 01:19:16;;;;;;;7.30;6.33;;;;;;;20.70;100.00;98102.50;5054795;28;20227;-78
2023/08/14 01:22:11;;;;;;;6.87;6.17;;;;;;;20.68;100.00;98107.38;5052743;28;20632;-78
2023/08/14 01:24:56;;;;;;;6.80;6.20;;;;;;;20.77;100.00;98102.97;5051419;28;20591;-78
2023/08/14 01:27:23;;;;;;;7.37;6.20;;;;;;;20.74;100.00;98109.75;5054776;28;20199;-78
2023/08/14 01:29:57;;;;;;;7.70;6.90;;;;;;;20.77;100.00;98116.47;5052906;28;20227;-78
2023/08/14 01:32:23;;;;;;;7.43;6.63;;;;;;;20.84;100.00;98115.06;5054799;28;20185;-78
2023/08/14 01:34:50;;;;;;;10.07;7.33;;;;;;;20.85;100.00;98121.28;5054534;28;20200;-78
2023/08/14 01:37:30;;;;;;;7.50;6.63;;;;;;;20.89;100.00;98133.16;5055062;28;20209;-78
2023/08/14 01:40:05;;;;;;;8.57;7.00;;;;;;;20.85;100.00;98151.00;5036587;28;20225;-78
2023/08/14 01:42:34;;;;;;;6.50;5.90;;;;;;;20.90;100.00;98164.47;5037274;28;20244;-77
2023/08/14 01:45:07;;;;;;;9.30;6.87;;;;;;;20.95;100.00;98153.66;5055498;28;20225;-77
2023/08/14 01:47:35;;;;;;;8.63;6.90;;;;;;;21.01;100.00;98136.31;5054437;28;20568;-77
2023/08/14 01:50:02;;;;;;;6.47;5.87;;;;;;;20.89;100.00;98125.03;5053849;28;20217;-77
2023/08/14 01:52:30;;;;;;;8.73;5.87;;;;;;;20.96;100.00;98114.72;5035265;28;20210;-77
2023/08/14 01:55:00;;;;;;;8.37;6.47;;;;;;;20.95;100.00;98100.44;5054038;28;20292;-77
2023/08/14 01:57:27;;;;;;;6.70;5.97;;;;;;;20.98;100.00;98099.06;5053635;28;20607;-77
2023/08/14 01:59:53;;;;;;;8.83;6.10;;;;;;;20.87;100.00;98098.28;5053042;28;20225;-77
2023/08/14 02:02:19;;;;;;;6.97;6.27;;;;;;;20.93;100.00;98107.22;5054372;28;20209;-77
2023/08/14 02:04:46;;;;;;;7.03;6.33;;;;;;;20.93;100.00;98109.91;5053960;28;20223;-77
2023/08/14 02:07:12;;;;;;;6.40;5.80;;;;;;;20.97;100.00;98105.53;5053757;28;20209;-77
2023/08/14 02:09:39;;;;;;;8.50;6.30;;;;;;;20.98;100.00;98089.03;5051981;28;20308;-77
2023/08/14 02:12:06;;;;;;;8.53;6.60;;;;;;;20.95;100.00;98100.44;5053588;28;20543;-77
2023/08/14 02:14:32;;;;;;;9.60;7.10;;;;;;;20.85;100.00;98078.84;5053721;28;20205;-77
2023/08/14 02:16:58;;;;;;;14.27;7.97;;;;;;;20.93;100.00;98078.25;5053768;28;20201;-77
2023/08/14 02:19:25;;;;;;;8.87;7.97;;;;;;;20.87;100.00;98060.47;5053612;28;20235;-77
2023/08/14 02:21:51;;;;;;;7.57;6.77;;;;;;;20.79;100.00;98058.38;5053423;28;20201;-77
2023/08/14 02:24:18;;;;;;;8.83;7.93;;;;;;;20.82;100.00;98052.41;5053092;28;20220;-77
2023/08/14 02:26:44;;;;;;;9.40;8.37;;;;;;;20.85;100.00;98057.22;5053746;28;20212;-77
2023/08/14 02:29:10;;;;;;;8.57;7.60;;;;;;;20.90;100.00;98064.50;5053648;28;20225;-77
2023/08/14 02:31:37;;;;;;;9.27;8.37;;;;;;;20.90;100.00;98059.09;5053025;28;20201;-77
2023/08/14 02:34:03;;;;;;;9.60;8.57;;;;;;;20.88;100.00;98061.25;5054686;28;20198;-78
2023/08/14 02:36:29;;;;;;;10.23;9.23;;;;;;;20.87;100.00;98056.94;5055155;28;20227;-77
2023/08/14 02:38:56;;;;;;;13.03;10.10;;;;;;;20.89;100.00;98052.06;5054744;28;20236;-77
2023/08/14 02:41:23;;;;;;;11.03;9.30;;;;;;;20.96;100.00;98053.38;5053190;28;20206;-77
2023/08/14 02:43:49;;;;;;;11.60;8.27;;;;;;;21.03;100.00;98042.22;5053051;28;20223;-77
2023/08/14 02:46:15;;;;;;;9.50;7.80;;;;;;;20.85;100.00;98032.09;5052962;28;20201;-77
2023/08/14 02:48:42;;;;;;;7.47;6.50;;;;;;;20.78;100.00;98028.91;5052980;28;20241;-77
2023/08/14 02:51:08;;;;;;;8.33;6.00;;;;;;;20.65;100.00;98046.59;5052355;28;20657;-77
2023/08/14 02:53:34;;;;;;;7.30;5.50;;;;;;;20.62;100.00;98051.78;5053503;28;20575;-77
2023/08/14 02:56:01;;;;;;;7.47;5.80;;;;;;;20.59;100.00;98042.34;5053233;28;20213;-77
2023/08/14 02:58:27;;;;;;;9.13;6.40;;;;;;;20.47;100.00;98058.09;5053026;28;20228;-77
2023/08/14 03:00:53;;;;;;;6.53;4.80;;;;;;;20.41;100.00;98070.03;5052650;28;20212;-77
2023/08/14 03:03:20;;;;;;;5.93;4.77;;;;;;;20.31;100.00;98074.69;5053571;28;20570;-77
2023/08/14 03:05:46;;;;;;;5.00;4.50;;;;;;;20.33;100.00;98069.81;5054006;28;20208;-77
2023/08/14 03:08:13;;;;;;;4.63;4.13;;;;;;;20.33;100.00;98077.91;5054365;28;20287;-78
2023/08/14 03:10:39;;;;;;;8.43;4.53;;;;;;;20.41;100.00;98078.13;5053143;28;20224;-78
2023/08/14 03:13:05;;;;;;;5.13;3.90;;;;;;;20.28;100.00;98067.16;5054127;28;20205;-78
2023/08/14 03:15:32;;;;;;;4.40;4.00;;;;;;;20.25;100.00;98057.72;5053530;28;20710;-78
2023/08/14 03:17:58;;;;;;;5.77;3.90;;;;;;;20.20;100.00;98049.66;5053777;28;20206;-77
2023/08/14 03:20:24;;;;;;;5.97;3.93;;;;;;;20.23;100.00;98046.41;5055005;28;20313;-77
2023/08/14 03:22:51;;;;;;;4.77;4.27;;;;;;;20.21;100.00;98047.78;5057572;28;20216;-77
2023/08/14 03:25:17;;;;;;;5.37;4.00;;;;;;;20.24;100.00;98044.50;5056982;28;20228;-77
2023/08/14 03:27:44;;;;;;;4.60;4.20;;;;;;;20.22;100.00;98041.28;5056861;28;20204;-78
2023/08/14 03:30:12;;;;;;;7.10;4.67;;;;;;;20.14;100.00;98045.38;5056662;28;20232;-78
2023/08/14 03:32:38;;;;;;;8.13;4.93;;;;;;;20.03;100.00;98075.38;5056105;28;20209;-78
2023/08/14 03:35:05;;;;;;;5.47;4.40;;;;;;;20.06;100.00;98072.09;5057055;28;20688;-77
2023/08/14 03:37:31;;;;;;;5.50;4.33;;;;;;;19.98;100.00;98056.53;5056693;28;20210;-78
2023/08/14 03:39:58;;;;;;;7.20;5.00;;;;;;;19.98;100.00;98064.63;5056085;28;20245;-77
2023/08/14 03:42:24;;;;;;;6.97;4.53;;;;;;;19.98;100.00;98067.31;5057443;28;20206;-78
2023/08/14 03:44:51;;;;;;;5.20;4.63;;;;;;;20.01;100.00;98061.34;5056969;28;20221;-78
2023/08/14 03:47:17;;;;;;;5.90;4.47;;;;;;;19.92;100.00;98063.00;5056767;28;20200;-78
2023/08/14 03:49:43;;;;;;;6.57;4.90;;;;;;;19.87;100.00;98063.84;5055979;28;20225;-78
2023/08/14 03:52:10;;;;;;;10.23;5.20;;;;;;;19.80;100.00;98073.34;5038315;28;20621;-78
2023/08/14 03:54:36;;;;;;;7.47;5.40;;;;;;;19.76;100.00;98072.28;5056952;28;20672;-78
2023/08/14 03:57:03;;;;;;;6.43;5.10;;;;;;;19.73;100.00;98075.53;5057253;28;20331;-78
2023/08/14 03:59:29;;;;;;;5.20;4.70;;;;;;;19.72;100.00;98071.22;5056128;28;20221;-78
2023/08/14 04:01:55;;;;;;;6.50;5.17;;;;;;;19.71;100.00;98069.63;5055147;28;20209;-78
2023/08/14 04:04:22;;;;;;;6.83;5.13;;;;;;;19.73;100.00;98072.81;5053429;28;20213;-78
2023/08/14 04:06:49;;;;;;;5.20;4.80;;;;;;;19.68;100.00;98063.66;5057431;28;20526;-78
2023/08/14 04:09:16;;;;;;;5.17;4.63;;;;;;;19.55;100.00;98069.66;5057660;28;20298;-78
2023/08/14 04:11:42;;;;;;;6.40;5.20;;;;;;;19.50;100.00;98061.59;5054856;28;20209;-78
2023/08/14 04:14:09;;;;;;;5.70;4.63;;;;;;;19.58;100.00;98062.09;5053190;28;20206;-78
2023/08/14 04:16:44;;;;;;;9.40;5.00;;;;;;;19.55;100.00;98056.16;5056483;28;20212;-78
2023/08/14 04:19:14;;;;;;;5.20;4.80;;;;;;;19.59;100.00;98061.84;5056391;28;20225;-78
2023/08/14 04:21:41;;;;;;;4.80;4.40;;;;;;;19.50;100.00;98071.59;5054717;28;20205;-78
2023/08/14 04:24:08;;;;;;;6.90;5.30;;;;;;;19.55;100.00;98068.88;5055797;28;20217;-78
2023/08/14 04:26:36;;;;;;;6.97;4.87;;;;;;;19.49;100.00;98070.75;5040359;28;20684;-78
2023/08/14 04:29:06;;;;;;;6.57;4.80;;;;;;;19.55;100.00;98079.66;5043121;28;20591;-78
2023/08/14 04:31:33;;;;;;;5.07;4.43;;;;;;;19.57;100.00;98077.47;5053536;28;20572;-78
2023/08/14 04:33:59;;;;;;;5.27;4.77;;;;;;;19.52;100.00;98067.53;5055533;28;20220;-78
2023/08/14 04:36:25;;;;;;;4.93;4.60;;;;;;;19.49;100.00;98064.56;5056013;28;20209;-78
2023/08/14 04:38:52;;;;;;;5.53;4.37;;;;;;;19.50;100.00;98050.00;5055165;28;20237;-78
2023/08/14 04:41:18;;;;;;;5.50;3.87;;;;;;;19.54;100.00;98040.28;5051870;28;20671;-78
2023/08/14 04:43:45;;;;;;;4.37;3.60;;;;;;;19.54;100.00;98037.59;5053386;28;20427;-78
2023/08/14 04:46:12;;;;;;;5.13;3.70;;;;;;;19.57;100.00;98044.31;5053717;28;20660;-78
2023/08/14 04:48:39;;;;;;;5.90;4.07;;;;;;;19.59;100.00;98042.97;5049562;28;20583;-78
2023/08/14 04:51:06;;;;;;;6.30;4.23;;;;;;;19.62;100.00;98047.00;5055667;28;20209;-78
2023/08/14 04:53:33;;;;;;;7.40;4.90;;;;;;;19.58;100.00;98055.63;5055954;28;20209;-78
2023/08/14 04:55:59;;;;;;;4.37;3.97;;;;;;;19.61;100.00;98054.25;5055362;28;20204;-78
2023/08/14 04:58:25;;;;;;;4.80;4.37;;;;;;;19.55;100.00;98064.25;5053646;28;20212;-78
2023/08/14 05:00:52;;;;;;;5.13;4.60;;;;;;;19.57;100.00;98071.28;5055826;28;20205;-78
2023/08/14 05:03:18;;;;;;;7.20;4.77;;;;;;;19.63;100.00;98068.31;5055108;28;20216;-78
2023/08/14 05:05:51;;;;;;;5.20;4.70;;;;;;;19.60;100.00;98061.53;5054680;28;20229;-78
2023/08/14 05:08:17;;;;;;;5.77;4.67;;;;;;;19.59;100.00;98057.22;5054558;28;20201;-78
2023/08/14 05:10:43;;;;;;;6.00;5.00;;;;;;;19.65;100.00;98063.44;5055319;28;20209;-78
2023/08/14 05:13:10;;;;;;;5.30;4.80;;;;;;;19.63;100.00;98059.38;5055721;28;20208;-78
2023/08/14 05:15:39;;;;;;;8.13;4.83;;;;;;;19.67;100.00;98063.94;5054073;28;20205;-75
2023/08/14 05:18:05;;;;;;;6.40;5.07;;;;;;;19.73;100.00;98059.34;5052430;28;20667;-74
2023/08/14 05:20:34;;;;;;;6.90;5.00;;;;;;;19.82;100.00;98057.69;5054031;28;20247;-75
2023/08/14 05:23:01;;;;;;;5.73;5.17;;;;;;;20.00;100.00;98057.84;5053789;28;20292;-75
2023/08/14 05:25:27;;;;;;;6.87;5.20;;;;;;;20.08;100.00;98053.75;5053650;28;20221;-75
2023/08/14 05:27:54;;;;;;;5.77;4.33;;;;;;;19.98;100.00;98064.63;5052640;28;20660;-74
2023/08/14 05:30:20;;;;;;;6.73;4.53;;;;;;;20.12;100.00;98063.72;5053442;28;20708;-74
2023/08/14 05:32:47;;;;;;;5.37;3.90;;;;;;;20.19;100.00;98047.22;5053677;28;20569;-74
2023/08/14 05:35:16;;;;;;;5.93;4.03;;;;;;;20.19;100.00;98042.66;5052938;28;20201;-74
2023/08/14 05:37:43;;;;;;;6.93;4.20;;;;;;;20.32;100.00;98043.91;5053337;28;20236;-74
2023/08/14 05:40:12;;;;;;;6.47;4.40;;;;;;;20.44;100.00;98047.06;5053289;28;20243;-75
2023/08/14 05:42:38;;;;;;;9.23;4.23;;;;;;;20.45;100.00;98040.56;5053691;28;20201;-75
2023/08/14 05:45:05;;;;;;;8.07;4.00;;;;;;;20.49;100.00;98030.81;5051324;28;20313;-75
2023/08/14 05:47:32;;;;;;;6.60;3.97;;;;;;;20.44;100.00;98028.94;5053374;28;20205;-74
2023/08/14 05:49:58;;;;;;;5.87;4.37;;;;;;;20.28;100.00;98030.16;5053424;28;20225;-75
2023/08/14 05:52:25;;;;;;;4.60;4.20;;;;;;;20.35;100.00;98029.84;5053077;28;20621;-75
2023/08/14 05:54:52;;;;;;;8.93;5.50;;;;;;;20.46;100.00;98034.06;5052487;28;20202;-75
2023/08/14 05:57:18;;;;;;;5.33;4.83;;;;;;;20.47;100.00;98047.28;5053000;28;20751;-75
2023/08/14 05:59:45;;;;;;;7.53;5.23;;;;;;;20.40;100.00;98038.72;5053285;28;20317;-75
2023/08/14 06:02:12;;;;;;;6.50;5.97;;;;;;;20.35;100.00;98043.34;5053556;28;20315;-75
2023/08/14 06:04:40;;;;;;;6.10;5.50;;;;;;;20.44;100.00;98049.75;5052302;28;20228;-75
2023/08/14 06:07:06;;;;;;;7.73;5.50;;;;;;;20.47;100.00;98047.28;5052142;28;20679;-75
2023/08/14 06:09:33;;;;;;;7.40;5.77;;;;;;;20.46;100.00;98039.47;5052794;28;20569;-75
2023/08/14 06:11:59;;;;;;;6.80;5.43;;;;;;;20.45;100.00;98040.56;5053012;28;20575;-75
2023/08/14 06:14:26;;;;;;;9.90;5.93;;;;;;;20.47;100.00;98043.78;5052880;28;20197;-75
2023/08/14 06:16:52;;;;;;;6.17;5.60;;;;;;;20.60;100.00;98051.22;5053002;28;20232;-75
2023/08/14 06:19:18;;;;;;;6.47;5.83;;;;;;;20.59;100.00;98042.34;5053083;28;20225;-75
2023/08/14 06:21:45;;;;;;;6.70;4.47;;;;;;;20.52;100.00;98019.44;5050849;28;20292;-75
2023/08/14 06:24:11;;;;;;;4.63;4.20;;;;;;;20.60;100.00;97999.91;5041329;28;20197;-75
2023/08/14 06:26:37;;;;;;;5.73;4.90;;;;;;;20.59;100.00;98007.22;5052856;28;20208;-75
2023/08/14 06:29:04;;;;;;;6.57;4.90;;;;;;;20.60;100.00;98026.91;5052828;28;20232;-75
2023/08/14 06:31:30;;;;;;;5.57;4.57;;;;;;;20.62;100.00;98035.56;5051829;28;20205;-75
2023/08/14 06:33:56;;;;;;;8.20;4.37;;;;;;;20.53;100.00;98021.84;5051813;28;20220;-75
2023/08/14 06:36:23;;;;;;;9.13;5.03;;;;;;;20.43;100.00;98021.94;5052677;28;20205;-75
2023/08/14 06:38:49;;;;;;;7.43;4.97;;;;;;;20.58;100.00;98029.13;5052584;28;20712;-75
2023/08/14 06:41:16;;;;;;;6.20;4.73;;;;;;;20.58;100.00;98042.63;5051944;28;20550;-75
2023/08/14 06:43:42;;;;;;;9.10;5.43;;;;;;;20.66;100.00;98036.63;5053148;28;20221;-75
2023/08/14 06:46:08;;;;;;;9.77;5.33;;;;;;;20.73;100.00;98028.97;5051897;28;20247;-75
2023/08/14 06:48:35;;;;;;;4.47;4.07;;;;;;;20.83;100.00;98027.00;5052412;28;20221;-75
2023/08/14 06:51:01;;;;;;;6.20;4.20;;;;;;;20.89;100.00;98036.66;5052917;28;20205;-75
2023/08/14 06:53:27;;;;;;;3.90;3.50;;;;;;;21.02;100.00;98029.81;5051976;28;20259;-75
2023/08/14 06:55:55;;;;;;;4.83;3.40;;;;;;;21.16;100.00;98041.56;5054985;28;20201;-75
2023/08/14 06:58:21;;;;;;;4.87;3.73;;;;;;;21.23;100.00;98042.81;5055666;28;20718;-75
2023/08/14 07:00:48;;;;;;;5.30;3.70;;;;;;;21.29;100.00;98040.88;5056010;28;20632;-75
2023/08/14 07:03:15;;;;;;;6.40;4.18;;;;;;;21.28;100.00;98047.34;5055503;28;20217;-75
2023/08/14 07:05:41;;;;;;;5.87;4.57;;;;;;;21.34;100.00;98046.22;5054521;28;20224;-75
2023/08/14 07:08:08;;;;;;;5.72;4.25;;;;;;;21.45;100.00;98043.13;5056261;28;20235;-75
2023/08/14 07:10:35;;;;;;;4.30;3.58;;;;;;;21.49;100.00;98036.03;5055971;28;20225;-75
2023/08/14 07:13:01;;;;;;;4.88;3.55;;;;;;;21.61;100.00;98044.53;5055232;28;20295;-75
2023/08/14 07:15:28;;;;;;;4.47;3.65;;;;;;;21.55;100.00;98042.16;5055053;28;20208;-75
2023/08/14 07:17:54;;;;;;;3.60;3.30;;;;;;;21.56;100.00;98049.22;5056348;28;20205;-75
2023/08/14 07:20:21;;;;;;;3.72;3.42;;;;;;;21.52;100.00;98050.88;5056650;28;20271;-75
2023/08/14 07:22:47;;;;;;;4.13;2.70;;;;;;;21.51;100.00;98039.25;5055625;28;20212;-75
2023/08/14 07:25:13;;;;;;;5.55;3.45;;;;;;;21.62;100.00;98040.72;5055129;28;20236;-75
2023/08/14 07:27:40;;;;;;;4.25;3.17;;;;;;;21.68;100.00;98036.06;5055842;28;20208;-75
2023/08/14 07:30:07;;;;;;;4.10;3.80;;;;;;;21.64;100.00;98037.72;5055932;28;20235;-75
2023/08/14 07:32:33;;;;;;;5.75;3.00;;;;;;;21.72;100.00;98039.84;5054552;28;20657;-75
2023/08/14 07:35:00;;;;;;;3.95;3.53;;;;;;;21.83;100.00;98035.88;5054159;28;20197;-75
2023/08/14 07:37:26;;;;;;;4.20;3.42;;;;;;;22.03;100.00;98041.03;5054563;28;20209;-75
2023/08/14 07:39:52;;;;;;;4.47;3.70;;;;;;;22.07;100.00;98039.34;5055533;28;20243;-75
2023/08/14 07:42:19;;;;;;;7.05;3.80;;;;;;;22.07;100.00;98037.44;5055010;28;20205;-75
2023/08/14 07:44:45;;;;;;;4.70;3.35;;;;;;;22.15;100.00;98039.50;5053852;28;20674;-75
2023/08/14 07:47:12;;;;;;;3.92;3.17;;;;;;;22.21;100.00;98030.19;5055791;28;20205;-75
2023/08/14 07:49:39;;;;;;;4.03;3.30;;;;;;;22.35;100.00;98032.97;5056164;28;20316;-75
2023/08/14 07:52:06;;;;;;;3.70;3.40;;;;;;;22.44;100.00;98044.75;5055902;28;20211;-75
2023/08/14 07:54:33;;;;;;;4.93;3.08;;;;;;;22.51;100.00;98031.66;5054282;28;20209;-75
2023/08/14 07:56:59;;;;;;;4.75;3.40;;;;;;;22.66;100.00;98036.84;5055202;28;20213;-75
2023/08/14 07:59:25;;;;;;;3.72;2.70;;;;;;;22.82;100.00;98032.75;5054864;28;20229;-75
2023/08/14 08:01:52;;;;;;;5.25;3.15;;;;;;;22.76;100.00;98034.75;5055281;28;20295;-75
2023/08/14 08:04:18;;;;;;;5.55;3.25;;;;;;;22.74;100.00;98041.59;5054532;28;20279;-75
2023/08/14 08:06:45;;;;;;;5.43;3.50;;;;;;;22.71;100.00;98044.88;5053310;28;20229;-75
2023/08/14 08:09:12;;;;;;;6.53;3.08;;;;;;;22.79;100.00;98038.78;5053439;28;20311;-75
2023/08/14 08:11:39;;;;;;;6.45;3.40;;;;;;;22.96;100.00;98039.00;5054248;28;20205;-75
2023/08/14 08:14:06;;;;;;;6.07;3.10;;;;;;;23.06;100.00;98041.56;5054594;28;20201;-75
2023/08/14 08:16:35;;;;;;;3.25;2.95;;;;;;;23.15;100.00;98043.25;5052167;28;20204;-75
2023/08/14 08:19:04;;;;;;;4.63;2.92;;;;;;;23.25;100.00;98047.72;5055026;28;20256;-75
2023/08/14 08:21:30;;;;;;;4.82;3.22;;;;;;;23.29;100.00;98044.09;5055179;28;20209;-75
2023/08/14 08:23:57;;;;;;;3.50;3.00;;;;;;;23.48;100.00;98046.72;5054015;28;20201;-75
2023/08/14 08:26:23;;;;;;;2.97;2.60;;;;;;;23.64;100.00;98056.16;5054065;28;20253;-75
2023/08/14 08:28:49;;;;;;;5.93;3.20;;;;;;;23.67;100.00;98053.66;5053480;28;20225;-75
2023/08/14 08:31:16;;;;;;;3.63;3.28;;;;;;;23.65;100.00;98061.28;5053619;28;20206;-75
2023/08/14 08:33:42;;;;;;;4.90;3.15;;;;;;;23.86;100.00;98058.97;5054248;28;20641;-75
2023/08/14 08:36:09;;;;;;;4.70;2.92;;;;;;;23.86;100.00;98069.81;5054664;28;20207;-75
2023/08/14 08:38:35;;;;;;;3.75;3.38;;;;;;;24.01;100.00;98050.53;5053584;28;20232;-75
2023/08/14 08:41:03;;;;;;;4.63;3.35;;;;;;;24.03;100.00;98062.69;5054736;28;20186;-75
2023/08/14 08:43:32;;;;;;;5.35;3.45;;;;;;;24.05;100.00;98055.03;5054116;28;20302;-75
2023/08/14 08:46:00;;;;;;;4.80;3.70;;;;;;;24.22;100.00;98057.09;5054402;28;20692;-75
2023/08/14 08:48:33;;;;;;;4.47;3.30;;;;;;;24.33;100.00;98055.78;5054345;28;21772;-74
2023/08/14 08:51:00;;;;;;;5.75;3.33;;;;;;;24.34;100.00;98054.66;5055428;28;20652;-78
2023/08/14 08:53:26;;;;;;;5.88;3.33;;;;;;;24.46;100.00;98057.66;5057383;28;20204;-77
2023/08/14 08:55:53;;;;;;;4.25;3.20;;;;;;;24.69;100.00;98051.13;5057765;28;20197;-78
2023/08/14 08:58:21;;;;;;;4.25;3.33;;;;;;;24.78;100.00;98049.28;5060869;28;20209;-79
2023/08/14 09:00:47;;;;;;;4.65;3.00;;;;;;;24.82;100.00;98055.66;5059868;28;20260;-79
2023/08/14 09:03:13;;;;;;;4.10;3.00;;;;;;;24.83;100.00;98060.03;5056968;28;20581;-77
2023/08/14 09:05:41;;;;;;;4.75;3.15;;;;;;;24.98;100.00;98065.06;5054527;28;20227;-77
2023/08/14 09:08:08;;;;;;;5.80;3.38;;;;;;;25.28;100.00;98070.53;5059334;28;20209;-78
2023/08/14 09:10:35;;;;;;;4.47;3.03;;;;;;;25.12;100.00;98069.31;5056089;28;20262;-77
2023/08/14 09:13:02;;;;;;;4.00;3.10;;;;;;;25.10;100.00;98062.59;5055245;28;20224;-78
2023/08/14 09:15:29;;;;;;;4.38;3.08;;;;;;;25.11;100.00;98062.25;5059804;28;20205;-79
2023/08/14 09:17:55;;;;;;;3.50;3.20;;;;;;;24.87;100.00;98061.78;5057616;28;20205;-79
2023/08/14 09:20:22;;;;;;;3.92;2.72;;;;;;;24.98;100.00;98059.63;5059871;28;20221;-76
2023/08/14 09:22:49;;;;;;;4.22;3.67;;;;;;;25.24;100.00;98068.75;5052850;28;20826;-76
2023/08/14 09:25:16;;;;;;;6.28;3.20;;;;;;;25.29;100.00;98071.34;5053282;28;20714;-76
2023/08/14 09:27:43;;;;;;;5.22;2.92;;;;;;;25.44;100.00;98069.03;5053401;28;20208;-76
2023/08/14 09:30:13;;;;;;;5.07;3.35;;;;;;;25.62;100.00;98064.44;5053884;28;20704;-76
2023/08/14 09:32:39;;;;;;;5.25;3.45;;;;;;;25.53;100.00;98058.16;5053194;28;20611;-78
2023/08/14 09:35:06;;;;;;;4.25;3.20;;;;;;;25.65;100.00;98055.66;5055350;28;20215;-78
2023/08/14 09:37:33;;;;;;;3.25;2.85;;;;;;;25.95;100.00;98052.06;5053123;28;20669;-78
2023/08/14 09:40:10;;;;;;;3.03;2.70;;;;;;;25.74;100.00;98048.31;5050923;28;20241;-77
2023/08/14 09:42:36;;;;;;;5.15;3.55;;;;;;;25.55;100.00;98042.31;5054440;28;20197;-78
2023/08/14 09:45:03;;;;;;;4.85;2.97;;;;;;;25.91;100.00;98045.63;5054333;28;20205;-78
2023/08/14 09:47:31;;;;;;;4.80;3.08;;;;;;;26.16;100.00;98039.44;5054089;28;20255;-78
2023/08/14 09:49:58;;;;;;;4.55;3.03;;;;;;;26.21;100.00;98044.72;5052212;28;20228;-77
2023/08/14 09:52:27;;;;;;;4.82;2.95;;;;;;;26.22;100.00;98036.22;5053635;28;20209;-77
2023/08/14 09:54:54;;;;;;;3.67;3.30;;;;;;;26.36;100.00;98034.16;5053524;28;20205;-77
2023/08/14 09:57:23;;;;;;;4.53;3.20;;;;;;;26.66;100.00;98040.56;5052759;28;20656;-77
2023/08/14 09:59:50;;;;;;;4.57;2.90;;;;;;;26.50;100.00;98042.97;5052716;28;20220;-77
2023/08/14 10:02:18;;;;;;;6.65;3.10;;;;;;;26.76;100.00;98034.78;5054128;28;20254;-78
2023/08/14 10:04:46;;;;;;;4.43;3.28;;;;;;;26.87;100.00;98036.84;5053036;28;20212;-74
2023/08/14 10:07:15;;;;;;;6.03;3.40;;;;;;;27.09;100.00;98039.34;5053052;28;20695;-74
2023/08/14 10:09:46;;;;;;;3.22;2.95;;;;;;;27.17;100.00;98029.53;5052237;28;20563;-74
2023/08/14 10:12:14;;;;;;;5.38;3.40;;;;;;;27.21;100.00;98022.31;5051328;28;20212;-74
2023/08/14 10:14:45;;;;;;;4.68;3.17;;;;;;;27.46;100.00;98015.97;5052445;28;20211;-74
2023/08/14 10:17:19;;;;;;;5.93;3.35;;;;;;;27.68;100.00;98029.34;5053155;28;20263;-74
2023/08/14 10:19:49;;;;;;;4.47;3.45;;;;;;;27.66;100.00;98025.34;5052483;28;20239;-74
2023/08/14 10:22:16;;;;;;;3.60;3.30;;;;;;;27.94;100.00;98021.03;5051588;28;20318;-75
2023/08/14 10:24:43;;;;;;;3.25;3.00;;;;;;;27.72;100.00;98018.56;5035652;28;20215;-74
2023/08/14 10:27:10;;;;;;;4.05;3.08;;;;;;;27.82;100.00;98019.03;5052701;28;20565;-74
2023/08/14 10:29:38;;;;;;;7.10;3.33;;;;;;;27.92;100.00;98015.09;5036266;28;20568;-75
2023/08/14 10:32:06;;;;;;;3.47;3.03;;;;;;;27.80;100.00;98018.53;5055143;28;20201;-75
2023/08/14 10:34:33;;;;;;;4.63;3.15;;;;;;;27.71;100.00;98020.47;5037285;28;20209;-75
2023/08/14 10:37:00;;;;;;;6.47;3.60;;;;;;;28.07;100.00;98020.75;5037121;28;20206;-75
2023/08/14 10:39:34;;;;;;;4.03;3.35;;;;;;;27.98;100.00;98016.50;5050573;28;20247;-75
2023/08/14 10:42:04;;;;;;;3.55;2.80;;;;;;;28.13;100.00;98013.97;5055759;28;20208;-74
2023/08/14 10:44:37;;;;;;;4.60;3.25;;;;;;;27.88;100.00;98014.94;5056592;28;20578;-75
2023/08/14 10:47:13;;;;;;;4.60;3.22;;;;;;;28.04;99.88;98010.50;5056602;28;20231;-75
2023/08/14 10:49:49;;;;;;;4.93;3.25;;;;;;;28.21;100.00;98023.25;5056106;28;20228;-75
2023/08/14 10:52:19;;;;;;;2.80;2.60;;;;;;;28.56;97.33;98011.72;5057060;28;20205;-75
2023/08/14 10:54:50;;;;;;;3.50;2.97;;;;;;;28.50;97.67;98013.06;5056747;28;20241;-75
2023/08/14 10:57:17;;;;;;;5.78;3.38;;;;;;;28.42;100.00;98013.94;5056434;28;20575;-75
2023/08/14 10:59:54;;;;;;;3.20;2.90;;;;;;;28.46;100.00;98020.34;5056542;28;20225;-75
2023/08/14 11:02:21;;;;;;;4.88;2.72;;;;;;;28.62;94.68;98007.63;5055883;28;20544;-75
2023/08/14 11:05:16;;;;;;;3.85;2.80;;;;;;;28.52;95.12;98008.03;5056591;28;20575;-74
2023/08/14 11:07:57;;;;;;;3.90;2.72;;;;;;;27.95;100.00;98007.03;5056512;28;20215;-74
2023/08/14 11:10:26;;;;;;;4.10;3.03;;;;;;;27.70;100.00;98012.59;5056385;28;20229;-74
2023/08/14 11:12:54;;;;;;;4.50;2.92;;;;;;;27.54;100.00;98012.38;5055989;28;20739;-74
2023/08/14 11:15:21;;;;;;;4.18;3.45;;;;;;;27.44;100.00;98020.94;5055214;28;20205;-75
2023/08/14 11:17:48;;;;;;;4.07;3.08;;;;;;;27.64;100.00;98011.22;5037471;28;20206;-75
2023/08/14 11:20:15;;;;;;;3.97;2.83;;;;;;;27.79;100.00;98016.09;5035943;28;20717;-74
2023/08/14 11:22:46;;;;;;;3.95;2.92;;;;;;;28.03;97.66;98014.34;5035725;28;20981;-74
2023/08/14 11:25:18;;;;;;;4.13;3.22;;;;;;;28.18;98.20;98005.59;5035902;28;20655;-74